Weather at City of Colorado Springs Municipal Airport

Public forecast

Using degrees Fahrenheit for public forecast. Weather courtesy of forecast.io.

Current aviation weather report (METAR) for City of Colorado Springs Municipal Airport

2024/07/17 12:54 (retrieved 49 minutes ago)

KCOS 171254Z 12004KT 10SM SCT130 16/09 A3038 RMK AO2 SLP209 T01560094

Aviation forecast (TAF) for City of Colorado Springs Municipal Airport

2024/07/17 12:42 (retrieved 1 hour ago)

TAF KCOS 171140Z 1712/1812 01005KT P6SM SCT120 FM171700 16010KT P6SM SCT120 SCT200 FM171900 17012KT P6SM VCTS BKN100CB BKN150 FM172200 16012KT 6SM -SHRA VCTS SCT050CB BKN100 BKN150 FM180000 14008KT P6SM BKN100 BKN150 FM180400 13005KT P6SM SCT050 SCT100